Time,TemperatureF,DewpointF,PressureIn,WindDirection,WindDirectionDegrees,WindSpeedMPH,WindSpeedGustMPH,Humidity,HourlyPrecipIn,Conditions,Clouds,dailyrainin,SolarRadiationWatts/m^2,SoftwareType,DateUTC
2013-05-17 00:03:00,46.0,32.0,-100.00,SSE,157,7.0,11.0,59,0.00,,,0.00,0.000000,,2013-05-17 05:03:00,
2013-05-17 00:32:00,45.0,33.0,-100.00,SSE,148,7.0,14.0,62,0.00,,,0.00,0.000000,,2013-05-17 05:32:00,
2013-05-17 00:43:00,45.0,33.0,-100.00,SSE,148,7.0,14.0,62,0.00,,,0.00,0.000000,,2013-05-17 05:43:00,
2013-05-17 00:52:00,45.0,33.0,-100.00,SSE,148,7.0,14.0,62,0.00,,,0.00,0.000000,,2013-05-17 05:52:00,
2013-05-17 01:02:00,45.0,33.0,-100.00,SSE,148,7.0,14.0,62,0.00,,,0.00,0.000000,,2013-05-17 06:02:00,
2013-05-17 01:11:00,45.0,33.0,-100.00,SSE,148,7.0,14.0,62,0.00,,,0.00,0.000000,,2013-05-17 06:11:00,
2013-05-17 01:42:00,44.0,33.0,-100.00,SSE,147,7.0,12.0,66,0.00,,,0.00,1.000000,,2013-05-17 06:42:00,
2013-05-17 01:52:00,44.0,33.0,-100.00,SSE,147,7.0,12.0,66,0.00,,,0.00,1.000000,,2013-05-17 06:52:00,
2013-05-17 02:02:00,44.0,33.0,-100.00,SSE,147,7.0,12.0,66,0.00,,,0.00,1.000000,,2013-05-17 07:02:00,
2013-05-17 02:11:00,44.0,33.0,-100.00,SSE,147,7.0,12.0,66,0.00,,,0.00,1.000000,,2013-05-17 07:11:00,
2013-05-17 02:43:00,44.0,34.0,-100.00,SSE,152,7.0,12.0,67,0.00,,,0.00,0.000000,,2013-05-17 07:43:00,
2013-05-17 02:53:00,44.0,34.0,-100.00,SSE,152,7.0,12.0,67,0.00,,,0.00,0.000000,,2013-05-17 07:53:00,
2013-05-17 03:02:00,44.0,34.0,-100.00,SSE,152,7.0,12.0,67,0.00,,,0.00,0.000000,,2013-05-17 08:02:00,
2013-05-17 03:12:00,44.0,34.0,-100.00,SSE,152,7.0,12.0,67,0.00,,,0.00,0.000000,,2013-05-17 08:12:00,
2013-05-17 03:43:00,45.0,35.0,-100.00,SE,134,6.0,11.0,67,0.00,,,0.00,0.000000,,2013-05-17 08:43:00,
2013-05-17 03:52:00,45.0,35.0,-100.00,SE,134,6.0,11.0,67,0.00,,,0.00,0.000000,,2013-05-17 08:52:00,
2013-05-17 04:02:00,45.0,35.0,-100.00,SE,134,6.0,11.0,67,0.00,,,0.00,0.000000,,2013-05-17 09:02:00,
2013-05-17 04:12:00,45.0,35.0,-100.00,SE,134,6.0,11.0,67,0.00,,,0.00,0.000000,,2013-05-17 09:12:00,
2013-05-17 04:33:00,45.0,34.0,-100.00,SSE,160,10.0,19.0,66,0.00,,,0.00,0.000000,,2013-05-17 09:33:00,
2013-05-17 04:42:00,45.0,34.0,-100.00,SSE,160,10.0,19.0,66,0.00,,,0.00,0.000000,,2013-05-17 09:42:00,
2013-05-17 04:53:00,45.0,34.0,-100.00,SSE,160,10.0,19.0,66,0.00,,,0.00,0.000000,,2013-05-17 09:53:00,
2013-05-17 05:03:00,45.0,34.0,-100.00,SSE,160,10.0,19.0,66,0.00,,,0.00,0.000000,,2013-05-17 10:03:00,
2013-05-17 05:12:00,45.0,34.0,-100.00,SSE,160,10.0,19.0,66,0.00,,,0.00,0.000000,,2013-05-17 10:12:00,
2013-05-17 05:42:00,45.0,35.0,-100.00,SSE,165,9.0,14.0,67,0.00,,,0.00,1.000000,,2013-05-17 10:42:00,
2013-05-17 05:54:00,45.0,35.0,-100.00,SSE,165,9.0,14.0,67,0.00,,,0.00,1.000000,,2013-05-17 10:54:00,
2013-05-17 06:02:00,45.0,35.0,-100.00,SSE,165,9.0,14.0,67,0.00,,,0.00,1.000000,,2013-05-17 11:02:00,
2013-05-17 06:12:00,45.0,35.0,-100.00,SSE,165,9.0,14.0,67,0.00,,,0.00,1.000000,,2013-05-17 11:12:00,
2013-05-17 06:34:00,46.0,36.0,-100.00,East,92,6.0,13.0,67,0.00,,,0.00,4.000000,,2013-05-17 11:34:00,
2013-05-17 06:42:00,46.0,36.0,-100.00,East,92,6.0,13.0,67,0.00,,,0.00,4.000000,,2013-05-17 11:42:00,
2013-05-17 06:53:00,46.0,36.0,-100.00,East,92,6.0,13.0,67,0.00,,,0.00,4.000000,,2013-05-17 11:53:00,
2013-05-17 07:03:00,46.0,36.0,-100.00,East,92,6.0,13.0,67,0.00,,,0.00,4.000000,,2013-05-17 12:03:00,
2013-05-17 07:12:00,46.0,36.0,-100.00,East,92,6.0,13.0,67,0.00,,,0.00,4.000000,,2013-05-17 12:12:00,
2013-05-17 07:33:00,46.0,35.0,-100.00,SE,126,5.0,9.0,64,0.00,,,0.00,26.000000,,2013-05-17 12:33:00,
2013-05-17 07:43:00,46.0,35.0,-100.00,SE,126,5.0,9.0,64,0.00,,,0.00,26.000000,,2013-05-17 12:43:00,
2013-05-17 07:53:00,46.0,35.0,-100.00,SE,126,5.0,9.0,64,0.00,,,0.00,26.000000,,2013-05-17 12:53:00,
2013-05-17 08:03:00,46.0,35.0,-100.00,SE,126,5.0,9.0,64,0.00,,,0.00,26.000000,,2013-05-17 13:03:00,
2013-05-17 08:12:00,46.0,35.0,-100.00,SE,126,5.0,9.0,64,0.00,,,0.00,26.000000,,2013-05-17 13:12:00,
2013-05-17 08:13:00,49.0,35.0,-100.00,SE,132,7.0,12.0,58,0.00,,,0.00,58.000000,,2013-05-17 13:13:00,
2013-05-17 08:33:00,49.0,35.0,-100.00,SE,132,7.0,12.0,58,0.00,,,0.00,58.000000,,2013-05-17 13:33:00,
2013-05-17 08:42:00,49.0,35.0,-100.00,SE,132,7.0,12.0,58,0.00,,,0.00,58.000000,,2013-05-17 13:42:00,
2013-05-17 08:52:00,49.0,35.0,-100.00,SE,132,7.0,12.0,58,0.00,,,0.00,58.000000,,2013-05-17 13:52:00,
2013-05-17 09:02:00,49.0,35.0,-100.00,SE,132,7.0,12.0,58,0.00,,,0.00,58.000000,,2013-05-17 14:02:00,
2013-05-17 09:13:00,49.0,35.0,-100.00,SE,144,6.0,11.0,58,0.00,,,0.00,81.000000,,2013-05-17 14:13:00,
2013-05-17 09:43:00,49.0,35.0,-100.00,SE,144,6.0,11.0,58,0.00,,,0.00,81.000000,,2013-05-17 14:43:00,
2013-05-17 09:53:00,49.0,35.0,-100.00,SE,144,6.0,11.0,58,0.00,,,0.00,81.000000,,2013-05-17 14:53:00,
2013-05-17 10:03:00,49.0,35.0,-100.00,SE,144,6.0,11.0,58,0.00,,,0.00,81.000000,,2013-05-17 15:03:00,
2013-05-17 10:13:00,50.0,35.0,-100.00,SE,138,7.0,14.0,56,0.00,,,0.00,154.000000,,2013-05-17 15:13:00,
2013-05-17 10:47:00,50.0,35.0,-100.00,SE,138,7.0,14.0,56,0.00,,,0.00,154.000000,,2013-05-17 15:47:00,
2013-05-17 10:57:00,50.0,35.0,-100.00,SE,138,7.0,14.0,56,0.00,,,0.00,154.000000,,2013-05-17 15:57:00,
2013-05-17 11:07:00,50.0,35.0,-100.00,SE,138,7.0,14.0,56,0.00,,,0.00,154.000000,,2013-05-17 16:07:00,
2013-05-17 11:13:00,52.0,35.0,-100.00,SE,128,7.0,14.0,52,0.00,,,0.00,195.000000,,2013-05-17 16:13:00,
2013-05-17 11:37:00,52.0,35.0,-100.00,SE,128,7.0,14.0,52,0.00,,,0.00,195.000000,,2013-05-17 16:37:00,
2013-05-17 11:50:00,52.0,35.0,-100.00,SE,128,7.0,14.0,52,0.00,,,0.00,195.000000,,2013-05-17 16:50:00,
2013-05-17 11:56:00,52.0,35.0,-100.00,SE,128,7.0,14.0,52,0.00,,,0.00,195.000000,,2013-05-17 16:56:00,
2013-05-17 12:08:00,52.0,35.0,-100.00,SE,128,7.0,14.0,52,0.00,,,0.00,195.000000,,2013-05-17 17:08:00,
2013-05-17 12:13:00,60.0,35.0,-100.00,SE,137,9.0,15.0,39,0.00,,,0.00,655.000000,,2013-05-17 17:13:00,
2013-05-17 12:40:00,60.0,-99.9,-100.00,SE,137,9.0,15.0,39,0.00,,,0.00,655.000000,,2013-05-17 17:40:00,
2013-05-17 12:49:00,60.0,35.0,-100.00,SE,137,9.0,15.0,39,0.00,,,0.00,655.000000,,2013-05-17 17:49:00,
2013-05-17 13:00:00,60.0,35.0,-100.00,SE,137,9.0,15.0,39,0.00,,,0.00,655.000000,,2013-05-17 18:00:00,
2013-05-17 13:09:00,60.0,35.0,-100.00,SE,137,9.0,15.0,39,0.00,,,0.00,655.000000,,2013-05-17 18:09:00,
2013-05-17 13:13:00,64.0,35.0,-100.00,SE,139,8.0,16.0,34,0.00,,,0.00,815.000000,,2013-05-17 18:13:00,
2013-05-17 13:50:00,-999.0,-99.9,-100.00,SE,139,8.0,16.0,34,0.00,,,0.00,815.000000,,2013-05-17 18:50:00,
2013-05-17 14:00:00,64.0,-99.9,-100.00,SE,139,8.0,16.0,34,0.00,,,0.00,815.000000,,2013-05-17 19:00:00,
2013-05-17 14:10:00,64.0,35.0,-100.00,SE,139,8.0,16.0,34,0.00,,,0.00,815.000000,,2013-05-17 19:10:00,
2013-05-17 14:13:00,62.0,35.0,-100.00,SSE,149,8.0,15.0,36,0.00,,,0.00,722.000000,,2013-05-17 19:13:00,
2013-05-17 14:40:00,62.0,35.0,-100.00,SSE,149,8.0,15.0,36,0.00,,,0.00,722.000000,,2013-05-17 19:40:00,
2013-05-17 14:51:00,62.0,35.0,-100.00,SSE,149,8.0,15.0,36,0.00,,,0.00,722.000000,,2013-05-17 19:51:00,
2013-05-17 15:01:00,-999.0,-99.9,-100.00,SSE,149,8.0,15.0,36,0.00,,,0.00,722.000000,,2013-05-17 20:01:00,
2013-05-17 15:09:00,62.0,35.0,-100.00,SSE,149,8.0,15.0,36,0.00,,,0.00,722.000000,,2013-05-17 20:09:00,
2013-05-17 15:13:00,62.0,35.0,-100.00,SE,141,7.0,16.0,36,0.00,,,0.00,328.000000,,2013-05-17 20:13:00,
2013-05-17 15:50:00,62.0,35.0,-100.00,SE,141,7.0,16.0,36,0.00,,,0.00,328.000000,,2013-05-17 20:50:00,
2013-05-17 15:58:00,62.0,35.0,-100.00,SE,141,7.0,16.0,36,0.00,,,0.00,328.000000,,2013-05-17 20:58:00,
2013-05-17 16:07:00,62.0,35.0,-100.00,SE,141,7.0,16.0,36,0.00,,,0.00,328.000000,,2013-05-17 21:07:00,
2013-05-17 16:13:00,61.0,32.0,-100.00,SE,135,8.0,14.0,34,0.00,,,0.00,306.000000,,2013-05-17 21:13:00,
2013-05-17 16:39:00,61.0,32.0,-100.00,SE,135,8.0,14.0,34,0.00,,,0.00,306.000000,,2013-05-17 21:39:00,
2013-05-17 16:49:00,61.0,32.0,-100.00,SE,135,8.0,14.0,34,0.00,,,0.00,306.000000,,2013-05-17 21:49:00,
2013-05-17 16:58:00,61.0,32.0,-100.00,SE,135,8.0,14.0,34,0.00,,,0.00,306.000000,,2013-05-17 21:58:00,
2013-05-17 17:07:00,61.0,32.0,-100.00,SE,135,8.0,14.0,34,0.00,,,0.00,306.000000,,2013-05-17 22:07:00,
2013-05-17 17:13:00,60.0,32.0,-100.00,SE,143,6.0,13.0,35,0.00,,,0.00,220.000000,,2013-05-17 22:13:00,
2013-05-17 17:38:00,60.0,32.0,-100.00,SE,143,6.0,13.0,35,0.00,,,0.00,220.000000,,2013-05-17 22:38:00,
2013-05-17 17:47:00,60.0,32.0,-100.00,SE,143,6.0,13.0,35,0.00,,,0.00,220.000000,,2013-05-17 22:47:00,
2013-05-17 17:55:00,60.0,32.0,-100.00,SE,143,6.0,13.0,35,0.00,,,0.00,220.000000,,2013-05-17 22:55:00,
2013-05-17 18:04:00,60.0,32.0,-100.00,SE,143,6.0,13.0,35,0.00,,,0.00,220.000000,,2013-05-17 23:04:00,
2013-05-17 18:13:00,59.0,33.0,-100.00,SE,128,6.0,12.0,38,0.00,,,0.00,162.000000,,2013-05-17 23:13:00,
2013-05-17 18:38:00,59.0,33.0,-100.00,SE,128,6.0,12.0,38,0.00,,,0.00,162.000000,,2013-05-17 23:38:00,
2013-05-17 18:47:00,59.0,33.0,-100.00,SE,128,6.0,12.0,38,0.00,,,0.00,162.000000,,2013-05-17 23:47:00,
2013-05-17 18:54:00,59.0,33.0,-100.00,SE,128,6.0,12.0,38,0.00,,,0.00,162.000000,,2013-05-17 23:54:00,
2013-05-17 19:02:00,59.0,33.0,-100.00,SE,128,6.0,12.0,38,0.00,,,0.00,162.000000,,2013-05-18 00:02:00,
2013-05-17 19:13:00,59.0,33.0,-100.00,ESE,114,5.0,11.0,37,0.00,,,0.00,132.000000,,2013-05-18 00:13:00,
2013-05-17 19:34:00,59.0,33.0,-100.00,ESE,114,5.0,11.0,37,0.00,,,0.00,132.000000,,2013-05-18 00:34:00,
2013-05-17 19:45:00,59.0,33.0,-100.00,ESE,114,5.0,11.0,37,0.00,,,0.00,132.000000,,2013-05-18 00:45:00,
2013-05-17 19:54:00,59.0,33.0,-100.00,ESE,114,5.0,11.0,37,0.00,,,0.00,132.000000,,2013-05-18 00:54:00,
2013-05-17 20:03:00,59.0,33.0,-100.00,ESE,114,5.0,11.0,37,0.00,,,0.00,132.000000,,2013-05-18 01:03:00,
2013-05-17 20:32:00,57.0,34.0,-100.00,SE,129,4.0,9.0,41,0.00,,,0.00,37.000000,,2013-05-18 01:32:00,
2013-05-17 20:43:00,57.0,34.0,-100.00,SE,129,4.0,9.0,41,0.00,,,0.00,37.000000,,2013-05-18 01:43:00,
2013-05-17 20:52:00,57.0,34.0,-100.00,SE,129,4.0,9.0,41,0.00,,,0.00,37.000000,,2013-05-18 01:52:00,
2013-05-17 21:02:00,57.0,34.0,-100.00,SE,129,4.0,9.0,41,0.00,,,0.00,37.000000,,2013-05-18 02:02:00,
2013-05-17 21:12:00,57.0,34.0,-100.00,SE,129,4.0,9.0,41,0.00,,,0.00,37.000000,,2013-05-18 02:12:00,
2013-05-17 21:43:00,54.0,33.0,-100.00,SE,139,4.0,7.0,45,0.00,,,0.00,5.000000,,2013-05-18 02:43:00,
2013-05-17 21:54:00,54.0,33.0,-100.00,SE,139,4.0,7.0,45,0.00,,,0.00,5.000000,,2013-05-18 02:54:00,
2013-05-17 22:02:00,54.0,33.0,-100.00,SE,139,4.0,7.0,45,0.00,,,0.00,5.000000,,2013-05-18 03:02:00,
2013-05-17 22:12:00,54.0,33.0,-100.00,SE,139,4.0,7.0,45,0.00,,,0.00,5.000000,,2013-05-18 03:12:00,
2013-05-17 22:33:00,51.0,34.0,-100.00,SE,140,7.0,11.0,52,0.00,,,0.00,0.000000,,2013-05-18 03:33:00,
2013-05-17 22:43:00,51.0,34.0,-100.00,SE,140,7.0,11.0,52,0.00,,,0.00,0.000000,,2013-05-18 03:43:00,
2013-05-17 22:53:00,51.0,34.0,-100.00,SE,140,7.0,11.0,52,0.00,,,0.00,0.000000,,2013-05-18 03:53:00,
2013-05-17 23:03:00,51.0,34.0,-100.00,SE,140,7.0,11.0,52,0.00,,,0.00,0.000000,,2013-05-18 04:03:00,
2013-05-17 23:12:00,51.0,34.0,-100.00,SE,140,7.0,11.0,52,0.00,,,0.00,0.000000,,2013-05-18 04:12:00,
2013-05-17 23:33:00,49.0,35.0,-100.00,SE,140,6.0,12.0,59,0.00,,,0.00,0.000000,,2013-05-18 04:33:00,
2013-05-17 23:43:00,49.0,35.0,-100.00,SE,140,6.0,12.0,59,0.00,,,0.00,0.000000,,2013-05-18 04:43:00,
2013-05-17 23:52:00,49.0,35.0,-100.00,SE,140,6.0,12.0,59,0.00,,,0.00,0.000000,,2013-05-18 04:52:00,